sensor_id;sensor_type;location;lat;lon;timestamp;P1;durP1;ratioP1;P2;durP2;ratioP2
26953;SDS011;14508;50.924;11.600;2023-05-20T00:00:26;15.32;;;7.57;;
26953;SDS011;14508;50.924;11.600;2023-05-20T00:02:54;16.05;;;7.20;;
26953;SDS011;14508;50.924;11.600;2023-05-20T00:05:22;11.38;;;7.07;;
26953;SDS011;14508;50.924;11.600;2023-05-20T00:07:51;15.70;;;7.95;;
26953;SDS011;14508;50.924;11.600;2023-05-20T00:10:20;15.68;;;7.30;;
26953;SDS011;14508;50.924;11.600;2023-05-20T00:12:48;13.00;;;7.75;;
26953;SDS011;14508;50.924;11.600;2023-05-20T00:15:16;13.80;;;8.18;;
26953;SDS011;14508;50.924;11.600;2023-05-20T00:17:44;11.82;;;7.13;;
26953;SDS011;14508;50.924;11.600;2023-05-20T00:20:12;18.05;;;9.00;;
26953;SDS011;14508;50.924;11.600;2023-05-20T00:22:40;18.13;;;8.38;;
26953;SDS011;14508;50.924;11.600;2023-05-20T00:25:08;14.98;;;8.25;;
26953;SDS011;14508;50.924;11.600;2023-05-20T00:27:37;15.95;;;8.95;;
26953;SDS011;14508;50.924;11.600;2023-05-20T00:30:06;21.95;;;9.38;;
26953;SDS011;14508;50.924;11.600;2023-05-20T00:32:34;16.48;;;9.70;;
26953;SDS011;14508;50.924;11.600;2023-05-20T00:35:02;19.13;;;9.00;;
26953;SDS011;14508;50.924;11.600;2023-05-20T00:37:31;18.83;;;9.50;;
26953;SDS011;14508;50.924;11.600;2023-05-20T00:39:59;16.98;;;8.98;;
26953;SDS011;14508;50.924;11.600;2023-05-20T00:42:27;17.50;;;10.15;;
26953;SDS011;14508;50.924;11.600;2023-05-20T00:44:56;16.48;;;9.30;;
26953;SDS011;14508;50.924;11.600;2023-05-20T00:47:25;18.83;;;11.00;;
26953;SDS011;14508;50.924;11.600;2023-05-20T00:49:55;25.42;;;10.77;;
26953;SDS011;14508;50.924;11.600;2023-05-20T00:52:24;18.85;;;10.48;;
26953;SDS011;14508;50.924;11.600;2023-05-20T00:54:55;21.45;;;10.27;;
26953;SDS011;14508;50.924;11.600;2023-05-20T00:57:24;22.02;;;11.15;;
26953;SDS011;14508;50.924;11.600;2023-05-20T00:59:53;18.58;;;10.25;;
26953;SDS011;14508;50.924;11.600;2023-05-20T01:02:22;19.60;;;11.45;;
26953;SDS011;14508;50.924;11.600;2023-05-20T01:04:51;21.95;;;10.63;;
26953;SDS011;14508;50.924;11.600;2023-05-20T01:07:21;20.48;;;10.60;;
26953;SDS011;14508;50.924;11.600;2023-05-20T01:09:50;21.00;;;10.80;;
26953;SDS011;14508;50.924;11.600;2023-05-20T01:12:21;20.40;;;10.82;;
26953;SDS011;14508;50.924;11.600;2023-05-20T01:14:53;18.45;;;10.25;;
26953;SDS011;14508;50.924;11.600;2023-05-20T01:17:29;20.02;;;11.23;;
26953;SDS011;14508;50.924;11.600;2023-05-20T01:20:03;20.95;;;12.10;;
26953;SDS011;14508;50.924;11.600;2023-05-20T01:22:37;20.70;;;10.15;;
26953;SDS011;14508;50.924;11.600;2023-05-20T01:25:05;22.10;;;10.63;;
26953;SDS011;14508;50.924;11.600;2023-05-20T01:27:33;22.83;;;11.00;;
26953;SDS011;14508;50.924;11.600;2023-05-20T01:30:02;26.23;;;10.63;;
26953;SDS011;14508;50.924;11.600;2023-05-20T01:32:31;18.67;;;11.25;;
26953;SDS011;14508;50.924;11.600;2023-05-20T01:35:06;15.98;;;10.05;;
26953;SDS011;14508;50.924;11.600;2023-05-20T01:37:37;27.08;;;11.90;;
26953;SDS011;14508;50.924;11.600;2023-05-20T01:40:07;20.05;;;10.85;;
26953;SDS011;14508;50.924;11.600;2023-05-20T01:42:35;23.42;;;12.18;;
26953;SDS011;14508;50.924;11.600;2023-05-20T01:45:05;23.02;;;10.93;;
26953;SDS011;14508;50.924;11.600;2023-05-20T01:47:34;25.90;;;12.20;;
26953;SDS011;14508;50.924;11.600;2023-05-20T01:50:02;25.13;;;11.68;;
26953;SDS011;14508;50.924;11.600;2023-05-20T01:52:30;19.13;;;10.52;;
26953;SDS011;14508;50.924;11.600;2023-05-20T01:54:59;20.77;;;11.50;;
26953;SDS011;14508;50.924;11.600;2023-05-20T01:57:27;18.30;;;11.25;;
26953;SDS011;14508;50.924;11.600;2023-05-20T01:59:55;20.33;;;11.25;;
26953;SDS011;14508;50.924;11.600;2023-05-20T02:02:23;21.75;;;12.00;;
26953;SDS011;14508;50.924;11.600;2023-05-20T02:04:52;23.10;;;12.00;;
26953;SDS011;14508;50.924;11.600;2023-05-20T02:07:20;21.95;;;11.45;;
26953;SDS011;14508;50.924;11.600;2023-05-20T02:09:50;21.27;;;11.88;;
26953;SDS011;14508;50.924;11.600;2023-05-20T02:12:21;21.00;;;11.23;;
26953;SDS011;14508;50.924;11.600;2023-05-20T02:14:49;28.55;;;12.77;;
26953;SDS011;14508;50.924;11.600;2023-05-20T02:17:18;23.95;;;12.73;;
26953;SDS011;14508;50.924;11.600;2023-05-20T02:19:46;25.10;;;13.13;;
26953;SDS011;14508;50.924;11.600;2023-05-20T02:22:14;23.52;;;12.73;;
26953;SDS011;14508;50.924;11.600;2023-05-20T02:24:42;24.65;;;11.50;;
26953;SDS011;14508;50.924;11.600;2023-05-20T02:27:11;23.05;;;12.05;;
26953;SDS011;14508;50.924;11.600;2023-05-20T02:29:41;21.58;;;13.02;;
26953;SDS011;14508;50.924;11.600;2023-05-20T02:32:10;23.13;;;13.15;;
26953;SDS011;14508;50.924;11.600;2023-05-20T02:34:38;23.10;;;13.05;;
26953;SDS011;14508;50.924;11.600;2023-05-20T02:37:06;21.65;;;13.63;;
26953;SDS011;14508;50.924;11.600;2023-05-20T02:39:34;23.83;;;12.85;;
26953;SDS011;14508;50.924;11.600;2023-05-20T02:42:02;23.20;;;12.88;;
26953;SDS011;14508;50.924;11.600;2023-05-20T02:44:30;30.38;;;13.05;;
26953;SDS011;14508;50.924;11.600;2023-05-20T02:47:00;25.67;;;13.30;;
26953;SDS011;14508;50.924;11.600;2023-05-20T02:49:28;21.45;;;12.35;;
26953;SDS011;14508;50.924;11.600;2023-05-20T02:51:56;28.10;;;14.27;;
26953;SDS011;14508;50.924;11.600;2023-05-20T02:54:24;25.38;;;13.75;;
26953;SDS011;14508;50.924;11.600;2023-05-20T02:56:52;27.30;;;13.90;;
26953;SDS011;14508;50.924;11.600;2023-05-20T02:59:20;23.30;;;12.35;;
26953;SDS011;14508;50.924;11.600;2023-05-20T03:01:48;27.20;;;13.30;;
26953;SDS011;14508;50.924;11.600;2023-05-20T03:04:18;23.38;;;12.48;;
26953;SDS011;14508;50.924;11.600;2023-05-20T03:06:47;20.60;;;12.13;;
26953;SDS011;14508;50.924;11.600;2023-05-20T03:09:17;23.88;;;12.43;;
26953;SDS011;14508;50.924;11.600;2023-05-20T03:11:45;26.70;;;13.93;;
26953;SDS011;14508;50.924;11.600;2023-05-20T03:14:14;21.77;;;12.85;;
26953;SDS011;14508;50.924;11.600;2023-05-20T03:16:42;22.17;;;12.48;;
26953;SDS011;14508;50.924;11.600;2023-05-20T03:19:10;25.75;;;13.32;;
26953;SDS011;14508;50.924;11.600;2023-05-20T03:21:40;26.33;;;12.50;;
26953;SDS011;14508;50.924;11.600;2023-05-20T03:24:09;24.35;;;12.50;;
26953;SDS011;14508;50.924;11.600;2023-05-20T03:26:38;23.60;;;12.38;;
26953;SDS011;14508;50.924;11.600;2023-05-20T03:29:08;24.42;;;13.10;;
26953;SDS011;14508;50.924;11.600;2023-05-20T03:31:36;21.75;;;12.93;;
26953;SDS011;14508;50.924;11.600;2023-05-20T03:34:04;25.55;;;13.85;;
26953;SDS011;14508;50.924;11.600;2023-05-20T03:36:32;19.50;;;11.95;;
26953;SDS011;14508;50.924;11.600;2023-05-20T03:39:02;22.00;;;12.10;;
26953;SDS011;14508;50.924;11.600;2023-05-20T03:41:31;27.05;;;12.50;;
26953;SDS011;14508;50.924;11.600;2023-05-20T03:44:00;23.20;;;12.82;;
26953;SDS011;14508;50.924;11.600;2023-05-20T03:46:28;21.20;;;13.13;;
26953;SDS011;14508;50.924;11.600;2023-05-20T03:48:57;22.60;;;12.77;;
26953;SDS011;14508;50.924;11.600;2023-05-20T03:51:27;18.60;;;11.18;;
26953;SDS011;14508;50.924;11.600;2023-05-20T03:54:02;24.25;;;12.90;;
26953;SDS011;14508;50.924;11.600;2023-05-20T03:56:30;28.42;;;13.02;;
26953;SDS011;14508;50.924;11.600;2023-05-20T03:58:58;20.38;;;13.38;;
26953;SDS011;14508;50.924;11.600;2023-05-20T04:01:26;25.63;;;13.82;;
26953;SDS011;14508;50.924;11.600;2023-05-20T04:03:55;30.70;;;12.15;;
26953;SDS011;14508;50.924;11.600;2023-05-20T04:06:23;21.42;;;12.85;;
26953;SDS011;14508;50.924;11.600;2023-05-20T04:08:53;26.48;;;13.00;;
26953;SDS011;14508;50.924;11.600;2023-05-20T04:11:22;24.85;;;12.73;;
26953;SDS011;14508;50.924;11.600;2023-05-20T04:13:51;25.70;;;13.35;;
26953;SDS011;14508;50.924;11.600;2023-05-20T04:16:20;21.65;;;13.48;;
26953;SDS011;14508;50.924;11.600;2023-05-20T04:18:48;21.23;;;12.05;;
26953;SDS011;14508;50.924;11.600;2023-05-20T04:21:17;18.08;;;11.80;;
26953;SDS011;14508;50.924;11.600;2023-05-20T04:23:46;23.98;;;14.10;;
26953;SDS011;14508;50.924;11.600;2023-05-20T04:26:14;24.85;;;15.38;;
26953;SDS011;14508;50.924;11.600;2023-05-20T04:28:43;24.77;;;14.40;;
26953;SDS011;14508;50.924;11.600;2023-05-20T04:31:14;27.48;;;14.20;;
26953;SDS011;14508;50.924;11.600;2023-05-20T04:33:42;24.70;;;12.98;;
26953;SDS011;14508;50.924;11.600;2023-05-20T04:36:10;28.52;;;14.43;;
26953;SDS011;14508;50.924;11.600;2023-05-20T04:38:41;22.90;;;13.07;;
26953;SDS011;14508;50.924;11.600;2023-05-20T04:41:09;24.15;;;13.85;;
26953;SDS011;14508;50.924;11.600;2023-05-20T04:43:38;25.48;;;14.73;;
26953;SDS011;14508;50.924;11.600;2023-05-20T04:46:07;29.48;;;14.93;;
26953;SDS011;14508;50.924;11.600;2023-05-20T04:48:36;32.75;;;16.10;;
26953;SDS011;14508;50.924;11.600;2023-05-20T04:51:04;31.10;;;14.73;;
26953;SDS011;14508;50.924;11.600;2023-05-20T04:53:32;25.98;;;13.77;;
26953;SDS011;14508;50.924;11.600;2023-05-20T04:56:01;25.73;;;14.73;;
26953;SDS011;14508;50.924;11.600;2023-05-20T04:58:30;27.27;;;15.80;;
26953;SDS011;14508;50.924;11.600;2023-05-20T05:00:59;27.67;;;15.93;;
26953;SDS011;14508;50.924;11.600;2023-05-20T05:03:29;31.83;;;16.48;;
26953;SDS011;14508;50.924;11.600;2023-05-20T05:05:57;35.63;;;17.90;;
26953;SDS011;14508;50.924;11.600;2023-05-20T05:08:25;30.67;;;18.13;;
26953;SDS011;14508;50.924;11.600;2023-05-20T05:10:53;35.58;;;17.52;;
26953;SDS011;14508;50.924;11.600;2023-05-20T05:13:21;35.38;;;18.13;;
26953;SDS011;14508;50.924;11.600;2023-05-20T05:15:56;34.03;;;18.92;;
26953;SDS011;14508;50.924;11.600;2023-05-20T05:18:26;34.30;;;18.65;;
26953;SDS011;14508;50.924;11.600;2023-05-20T05:21:00;33.00;;;18.02;;
26953;SDS011;14508;50.924;11.600;2023-05-20T05:23:28;34.97;;;18.92;;
26953;SDS011;14508;50.924;11.600;2023-05-20T05:25:57;37.03;;;20.65;;
26953;SDS011;14508;50.924;11.600;2023-05-20T05:28:26;41.50;;;20.40;;
26953;SDS011;14508;50.924;11.600;2023-05-20T05:30:54;38.97;;;20.05;;
26953;SDS011;14508;50.924;11.600;2023-05-20T05:33:22;35.65;;;19.98;;
26953;SDS011;14508;50.924;11.600;2023-05-20T05:35:50;36.13;;;19.55;;
26953;SDS011;14508;50.924;11.600;2023-05-20T05:38:20;44.30;;;19.75;;
26953;SDS011;14508;50.924;11.600;2023-05-20T05:40:48;37.83;;;18.60;;
26953;SDS011;14508;50.924;11.600;2023-05-20T05:43:16;33.95;;;18.90;;
26953;SDS011;14508;50.924;11.600;2023-05-20T05:45:46;34.40;;;19.75;;
26953;SDS011;14508;50.924;11.600;2023-05-20T05:48:14;32.55;;;19.00;;
26953;SDS011;14508;50.924;11.600;2023-05-20T05:50:43;33.15;;;18.90;;
26953;SDS011;14508;50.924;11.600;2023-05-20T05:53:13;36.67;;;19.95;;
26953;SDS011;14508;50.924;11.600;2023-05-20T05:55:46;36.25;;;19.30;;
26953;SDS011;14508;50.924;11.600;2023-05-20T05:58:14;35.60;;;20.05;;
26953;SDS011;14508;50.924;11.600;2023-05-20T06:00:43;42.78;;;21.20;;
26953;SDS011;14508;50.924;11.600;2023-05-20T06:03:11;33.63;;;19.38;;
26953;SDS011;14508;50.924;11.600;2023-05-20T06:05:39;35.85;;;20.13;;
26953;SDS011;14508;50.924;11.600;2023-05-20T06:08:11;34.78;;;18.08;;
26953;SDS011;14508;50.924;11.600;2023-05-20T06:10:39;34.38;;;19.45;;
26953;SDS011;14508;50.924;11.600;2023-05-20T06:13:08;38.05;;;19.27;;
26953;SDS011;14508;50.924;11.600;2023-05-20T06:15:36;36.30;;;18.35;;
26953;SDS011;14508;50.924;11.600;2023-05-20T06:18:05;39.78;;;18.52;;
26953;SDS011;14508;50.924;11.600;2023-05-20T06:20:33;39.35;;;18.52;;
26953;SDS011;14508;50.924;11.600;2023-05-20T06:23:02;32.67;;;18.63;;
26953;SDS011;14508;50.924;11.600;2023-05-20T06:25:50;41.03;;;18.50;;
26953;SDS011;14508;50.924;11.600;2023-05-20T06:28:19;30.83;;;17.70;;
26953;SDS011;14508;50.924;11.600;2023-05-20T06:30:47;33.40;;;18.23;;
26953;SDS011;14508;50.924;11.600;2023-05-20T06:33:15;33.22;;;18.05;;
26953;SDS011;14508;50.924;11.600;2023-05-20T06:35:45;29.50;;;17.15;;
26953;SDS011;14508;50.924;11.600;2023-05-20T06:38:13;29.45;;;17.30;;
26953;SDS011;14508;50.924;11.600;2023-05-20T06:40:41;28.20;;;16.67;;
26953;SDS011;14508;50.924;11.600;2023-05-20T06:43:09;28.73;;;16.08;;
26953;SDS011;14508;50.924;11.600;2023-05-20T06:45:53;31.58;;;16.67;;
26953;SDS011;14508;50.924;11.600;2023-05-20T06:48:32;28.58;;;17.08;;
26953;SDS011;14508;50.924;11.600;2023-05-20T06:51:01;28.15;;;14.90;;
26953;SDS011;14508;50.924;11.600;2023-05-20T06:53:29;27.13;;;16.13;;
26953;SDS011;14508;50.924;11.600;2023-05-20T06:55:57;28.88;;;16.30;;
26953;SDS011;14508;50.924;11.600;2023-05-20T06:58:25;28.08;;;15.85;;
26953;SDS011;14508;50.924;11.600;2023-05-20T07:00:56;29.30;;;15.75;;
26953;SDS011;14508;50.924;11.600;2023-05-20T07:03:25;28.20;;;15.88;;
26953;SDS011;14508;50.924;11.600;2023-05-20T07:05:53;30.75;;;16.02;;
26953;SDS011;14508;50.924;11.600;2023-05-20T07:08:22;32.55;;;16.23;;
26953;SDS011;14508;50.924;11.600;2023-05-20T07:10:50;27.23;;;15.65;;
26953;SDS011;14508;50.924;11.600;2023-05-20T07:13:19;26.00;;;14.85;;
26953;SDS011;14508;50.924;11.600;2023-05-20T07:15:49;34.00;;;16.35;;
26953;SDS011;14508;50.924;11.600;2023-05-20T07:18:19;27.92;;;15.65;;
26953;SDS011;14508;50.924;11.600;2023-05-20T07:20:52;29.92;;;16.42;;
26953;SDS011;14508;50.924;11.600;2023-05-20T07:23:33;25.70;;;15.93;;
26953;SDS011;14508;50.924;11.600;2023-05-20T07:26:01;29.48;;;16.27;;
26953;SDS011;14508;50.924;11.600;2023-05-20T07:28:29;30.98;;;17.75;;
26953;SDS011;14508;50.924;11.600;2023-05-20T07:30:57;29.23;;;16.90;;
26953;SDS011;14508;50.924;11.600;2023-05-20T07:33:29;27.20;;;16.13;;
26953;SDS011;14508;50.924;11.600;2023-05-20T07:35:58;25.58;;;15.45;;
26953;SDS011;14508;50.924;11.600;2023-05-20T07:38:26;27.55;;;16.35;;
26953;SDS011;14508;50.924;11.600;2023-05-20T07:40:58;26.48;;;16.08;;
26953;SDS011;14508;50.924;11.600;2023-05-20T07:43:26;25.38;;;15.90;;
26953;SDS011;14508;50.924;11.600;2023-05-20T07:45:55;26.23;;;14.80;;
26953;SDS011;14508;50.924;11.600;2023-05-20T07:48:24;29.38;;;17.33;;
26953;SDS011;14508;50.924;11.600;2023-05-20T07:50:53;30.15;;;16.80;;
26953;SDS011;14508;50.924;11.600;2023-05-20T07:53:24;27.75;;;15.95;;
26953;SDS011;14508;50.924;11.600;2023-05-20T07:55:53;27.25;;;15.23;;
26953;SDS011;14508;50.924;11.600;2023-05-20T07:58:22;25.92;;;15.43;;
26953;SDS011;14508;50.924;11.600;2023-05-20T08:00:51;28.52;;;15.35;;
26953;SDS011;14508;50.924;11.600;2023-05-20T08:03:19;27.33;;;14.55;;
26953;SDS011;14508;50.924;11.600;2023-05-20T08:06:06;25.35;;;13.73;;
26953;SDS011;14508;50.924;11.600;2023-05-20T08:08:34;21.48;;;13.70;;
26953;SDS011;14508;50.924;11.600;2023-05-20T08:11:07;22.50;;;12.98;;
26953;SDS011;14508;50.924;11.600;2023-05-20T08:13:37;21.88;;;13.18;;
26953;SDS011;14508;50.924;11.600;2023-05-20T08:16:06;20.85;;;12.80;;
26953;SDS011;14508;50.924;11.600;2023-05-20T08:18:34;23.95;;;12.57;;
26953;SDS011;14508;50.924;11.600;2023-05-20T08:21:03;24.63;;;14.32;;
26953;SDS011;14508;50.924;11.600;2023-05-20T08:23:34;22.00;;;12.70;;
26953;SDS011;14508;50.924;11.600;2023-05-20T08:26:06;25.63;;;13.93;;
26953;SDS011;14508;50.924;11.600;2023-05-20T08:28:39;24.23;;;14.15;;
26953;SDS011;14508;50.924;11.600;2023-05-20T08:31:07;24.48;;;13.15;;
26953;SDS011;14508;50.924;11.600;2023-05-20T08:33:35;23.85;;;14.55;;
26953;SDS011;14508;50.924;11.600;2023-05-20T08:36:03;26.48;;;13.73;;
26953;SDS011;14508;50.924;11.600;2023-05-20T08:38:31;26.88;;;13.73;;
26953;SDS011;14508;50.924;11.600;2023-05-20T08:41:01;20.25;;;13.20;;
26953;SDS011;14508;50.924;11.600;2023-05-20T08:43:30;23.77;;;13.05;;
26953;SDS011;14508;50.924;11.600;2023-05-20T08:45:59;22.17;;;13.30;;
26953;SDS011;14508;50.924;11.600;2023-05-20T08:48:33;24.92;;;13.90;;
26953;SDS011;14508;50.924;11.600;2023-05-20T08:51:02;25.63;;;14.07;;
26953;SDS011;14508;50.924;11.600;2023-05-20T08:53:31;23.65;;;13.90;;
26953;SDS011;14508;50.924;11.600;2023-05-20T08:56:00;26.08;;;15.05;;
26953;SDS011;14508;50.924;11.600;2023-05-20T08:58:29;23.23;;;14.77;;
26953;SDS011;14508;50.924;11.600;2023-05-20T09:00:57;25.13;;;13.73;;
26953;SDS011;14508;50.924;11.600;2023-05-20T09:03:26;24.73;;;12.70;;
26953;SDS011;14508;50.924;11.600;2023-05-20T09:06:02;23.50;;;12.93;;
26953;SDS011;14508;50.924;11.600;2023-05-20T09:08:30;22.85;;;14.13;;
26953;SDS011;14508;50.924;11.600;2023-05-20T09:11:01;23.42;;;13.38;;
26953;SDS011;14508;50.924;11.600;2023-05-20T09:13:29;20.48;;;12.70;;
26953;SDS011;14508;50.924;11.600;2023-05-20T09:15:59;23.77;;;13.98;;
26953;SDS011;14508;50.924;11.600;2023-05-20T09:18:28;24.27;;;12.77;;
26953;SDS011;14508;50.924;11.600;2023-05-20T09:20:56;24.83;;;14.23;;
26953;SDS011;14508;50.924;11.600;2023-05-20T09:23:24;22.80;;;12.77;;
26953;SDS011;14508;50.924;11.600;2023-05-20T09:25:53;26.05;;;13.57;;
26953;SDS011;14508;50.924;11.600;2023-05-20T09:28:23;21.42;;;13.10;;
26953;SDS011;14508;50.924;11.600;2023-05-20T09:30:55;33.55;;;14.20;;
26953;SDS011;14508;50.924;11.600;2023-05-20T09:33:26;19.08;;;12.20;;
26953;SDS011;14508;50.924;11.600;2023-05-20T09:35:59;24.00;;;12.65;;
26953;SDS011;14508;50.924;11.600;2023-05-20T09:38:30;22.13;;;14.20;;
26953;SDS011;14508;50.924;11.600;2023-05-20T09:41:03;19.23;;;11.98;;
26953;SDS011;14508;50.924;11.600;2023-05-20T09:43:36;21.10;;;12.88;;
26953;SDS011;14508;50.924;11.600;2023-05-20T09:46:05;26.42;;;13.70;;
26953;SDS011;14508;50.924;11.600;2023-05-20T09:48:34;17.75;;;11.50;;
26953;SDS011;14508;50.924;11.600;2023-05-20T09:51:03;18.33;;;12.23;;
26953;SDS011;14508;50.924;11.600;2023-05-20T09:53:33;25.98;;;13.68;;
26953;SDS011;14508;50.924;11.600;2023-05-20T09:56:02;25.25;;;11.73;;
26953;SDS011;14508;50.924;11.600;2023-05-20T09:58:31;19.10;;;11.93;;
26953;SDS011;14508;50.924;11.600;2023-05-20T10:01:03;25.20;;;12.10;;
26953;SDS011;14508;50.924;11.600;2023-05-20T10:03:32;22.13;;;13.32;;
26953;SDS011;14508;50.924;11.600;2023-05-20T10:06:06;24.45;;;13.57;;
26953;SDS011;14508;50.924;11.600;2023-05-20T10:08:54;19.92;;;11.98;;
26953;SDS011;14508;50.924;11.600;2023-05-20T10:11:38;19.55;;;12.45;;
26953;SDS011;14508;50.924;11.600;2023-05-20T10:14:18;25.52;;;13.00;;
26953;SDS011;14508;50.924;11.600;2023-05-20T10:16:55;23.20;;;13.30;;
26953;SDS011;14508;50.924;11.600;2023-05-20T10:19:35;20.70;;;12.93;;
26953;SDS011;14508;50.924;11.600;2023-05-20T10:22:03;21.25;;;11.93;;
26953;SDS011;14508;50.924;11.600;2023-05-20T10:24:32;23.98;;;13.32;;
26953;SDS011;14508;50.924;11.600;2023-05-20T10:27:03;26.67;;;13.57;;
26953;SDS011;14508;50.924;11.600;2023-05-20T10:29:41;25.35;;;13.15;;
26953;SDS011;14508;50.924;11.600;2023-05-20T10:34:49;25.67;;;14.02;;
26953;SDS011;14508;50.924;11.600;2023-05-20T10:37:24;23.10;;;13.68;;
26953;SDS011;14508;50.924;11.600;2023-05-20T10:40:06;29.50;;;12.75;;
26953;SDS011;14508;50.924;11.600;2023-05-20T10:42:35;25.83;;;14.73;;
26953;SDS011;14508;50.924;11.600;2023-05-20T10:45:04;20.90;;;12.90;;
26953;SDS011;14508;50.924;11.600;2023-05-20T10:47:35;23.95;;;14.88;;
26953;SDS011;14508;50.924;11.600;2023-05-20T10:50:04;22.80;;;13.68;;
26953;SDS011;14508;50.924;11.600;2023-05-20T10:52:33;27.40;;;14.32;;
26953;SDS011;14508;50.924;11.600;2023-05-20T10:55:04;26.98;;;14.27;;
26953;SDS011;14508;50.924;11.600;2023-05-20T10:57:33;23.90;;;14.82;;
26953;SDS011;14508;50.924;11.600;2023-05-20T11:00:02;23.60;;;14.18;;
26953;SDS011;14508;50.924;11.600;2023-05-20T11:02:32;26.75;;;15.10;;
26953;SDS011;14508;50.924;11.600;2023-05-20T11:05:09;29.55;;;15.73;;
26953;SDS011;14508;50.924;11.600;2023-05-20T11:07:38;28.50;;;14.88;;
26953;SDS011;14508;50.924;11.600;2023-05-20T11:10:06;26.83;;;15.85;;
26953;SDS011;14508;50.924;11.600;2023-05-20T11:12:35;24.48;;;14.60;;
26953;SDS011;14508;50.924;11.600;2023-05-20T11:15:04;28.50;;;15.80;;
26953;SDS011;14508;50.924;11.600;2023-05-20T11:17:33;24.38;;;14.50;;
26953;SDS011;14508;50.924;11.600;2023-05-20T11:20:02;25.20;;;14.80;;
26953;SDS011;14508;50.924;11.600;2023-05-20T11:22:31;31.98;;;15.32;;
26953;SDS011;14508;50.924;11.600;2023-05-20T11:24:59;28.23;;;13.63;;
26953;SDS011;14508;50.924;11.600;2023-05-20T11:27:32;20.52;;;12.57;;
26953;SDS011;14508;50.924;11.600;2023-05-20T11:30:00;21.35;;;13.93;;
26953;SDS011;14508;50.924;11.600;2023-05-20T11:32:29;26.58;;;13.52;;
26953;SDS011;14508;50.924;11.600;2023-05-20T11:34:57;19.70;;;12.98;;
26953;SDS011;14508;50.924;11.600;2023-05-20T11:37:26;26.67;;;12.60;;
26953;SDS011;14508;50.924;11.600;2023-05-20T11:40:02;26.33;;;14.63;;
26953;SDS011;14508;50.924;11.600;2023-05-20T11:42:33;23.38;;;13.63;;
26953;SDS011;14508;50.924;11.600;2023-05-20T11:45:01;26.60;;;14.15;;
26953;SDS011;14508;50.924;11.600;2023-05-20T11:47:29;23.65;;;14.25;;
26953;SDS011;14508;50.924;11.600;2023-05-20T11:49:57;26.60;;;15.75;;
26953;SDS011;14508;50.924;11.600;2023-05-20T11:52:28;24.52;;;14.50;;
26953;SDS011;14508;50.924;11.600;2023-05-20T11:54:59;29.55;;;15.05;;
26953;SDS011;14508;50.924;11.600;2023-05-20T11:57:27;28.05;;;15.63;;
26953;SDS011;14508;50.924;11.600;2023-05-20T11:59:55;28.45;;;15.57;;
26953;SDS011;14508;50.924;11.600;2023-05-20T12:02:23;29.10;;;17.42;;
26953;SDS011;14508;50.924;11.600;2023-05-20T12:04:50;26.58;;;15.85;;
26953;SDS011;14508;50.924;11.600;2023-05-20T12:07:19;30.23;;;16.75;;
26953;SDS011;14508;50.924;11.600;2023-05-20T12:09:50;30.40;;;16.48;;
26953;SDS011;14508;50.924;11.600;2023-05-20T12:12:17;30.70;;;16.98;;
26953;SDS011;14508;50.924;11.600;2023-05-20T12:14:46;33.20;;;15.40;;
26953;SDS011;14508;50.924;11.600;2023-05-20T12:17:14;25.75;;;15.82;;
26953;SDS011;14508;50.924;11.600;2023-05-20T12:19:42;33.63;;;15.65;;
26953;SDS011;14508;50.924;11.600;2023-05-20T12:22:10;29.02;;;15.45;;
26953;SDS011;14508;50.924;11.600;2023-05-20T12:24:38;24.08;;;14.20;;
26953;SDS011;14508;50.924;11.600;2023-05-20T12:27:07;24.20;;;13.82;;
26953;SDS011;14508;50.924;11.600;2023-05-20T12:29:35;29.02;;;15.45;;
26953;SDS011;14508;50.924;11.600;2023-05-20T12:32:03;28.85;;;14.43;;
26953;SDS011;14508;50.924;11.600;2023-05-20T12:34:31;22.27;;;13.45;;
26953;SDS011;14508;50.924;11.600;2023-05-20T12:37:01;24.27;;;14.23;;
26953;SDS011;14508;50.924;11.600;2023-05-20T12:39:29;25.63;;;14.73;;
26953;SDS011;14508;50.924;11.600;2023-05-20T12:41:57;23.88;;;14.27;;
26953;SDS011;14508;50.924;11.600;2023-05-20T12:44:26;22.25;;;14.73;;
26953;SDS011;14508;50.924;11.600;2023-05-20T12:46:54;25.35;;;13.73;;
26953;SDS011;14508;50.924;11.600;2023-05-20T12:49:22;26.30;;;14.63;;
26953;SDS011;14508;50.924;11.600;2023-05-20T12:51:50;24.42;;;13.98;;
26953;SDS011;14508;50.924;11.600;2023-05-20T12:54:18;29.92;;;13.88;;
26953;SDS011;14508;50.924;11.600;2023-05-20T12:56:46;21.35;;;13.27;;
26953;SDS011;14508;50.924;11.600;2023-05-20T12:59:14;26.48;;;13.88;;
26953;SDS011;14508;50.924;11.600;2023-05-20T13:01:44;24.75;;;14.20;;
26953;SDS011;14508;50.924;11.600;2023-05-20T13:04:11;24.10;;;15.10;;
26953;SDS011;14508;50.924;11.600;2023-05-20T13:06:39;23.48;;;14.18;;
26953;SDS011;14508;50.924;11.600;2023-05-20T13:09:09;28.75;;;16.23;;
26953;SDS011;14508;50.924;11.600;2023-05-20T13:11:36;29.73;;;15.18;;
26953;SDS011;14508;50.924;11.600;2023-05-20T13:14:04;22.48;;;13.10;;
26953;SDS011;14508;50.924;11.600;2023-05-20T13:16:32;24.10;;;14.38;;
26953;SDS011;14508;50.924;11.600;2023-05-20T13:19:02;27.13;;;14.18;;
26953;SDS011;14508;50.924;11.600;2023-05-20T13:21:30;23.25;;;13.25;;
26953;SDS011;14508;50.924;11.600;2023-05-20T13:23:58;21.88;;;13.80;;
26953;SDS011;14508;50.924;11.600;2023-05-20T13:26:26;22.95;;;14.85;;
26953;SDS011;14508;50.924;11.600;2023-05-20T13:28:54;22.83;;;13.25;;
26953;SDS011;14508;50.924;11.600;2023-05-20T13:31:22;30.20;;;14.05;;
26953;SDS011;14508;50.924;11.600;2023-05-20T13:33:50;25.30;;;14.32;;
26953;SDS011;14508;50.924;11.600;2023-05-20T13:36:21;30.52;;;13.80;;
26953;SDS011;14508;50.924;11.600;2023-05-20T13:38:49;19.42;;;12.43;;
26953;SDS011;14508;50.924;11.600;2023-05-20T13:41:17;25.45;;;14.90;;
26953;SDS011;14508;50.924;11.600;2023-05-20T13:43:45;18.85;;;13.40;;
26953;SDS011;14508;50.924;11.600;2023-05-20T13:46:14;20.25;;;13.52;;
26953;SDS011;14508;50.924;11.600;2023-05-20T13:48:42;21.73;;;14.30;;
26953;SDS011;14508;50.924;11.600;2023-05-20T13:51:10;26.80;;;13.40;;
26953;SDS011;14508;50.924;11.600;2023-05-20T13:53:40;27.42;;;13.30;;
26953;SDS011;14508;50.924;11.600;2023-05-20T13:56:08;23.00;;;13.43;;
26953;SDS011;14508;50.924;11.600;2023-05-20T13:58:36;22.42;;;13.48;;
26953;SDS011;14508;50.924;11.600;2023-05-20T14:01:04;22.65;;;12.95;;
26953;SDS011;14508;50.924;11.600;2023-05-20T14:03:32;19.52;;;12.15;;
26953;SDS011;14508;50.924;11.600;2023-05-20T14:06:02;24.20;;;12.35;;
26953;SDS011;14508;50.924;11.600;2023-05-20T14:08:31;27.30;;;12.75;;
26953;SDS011;14508;50.924;11.600;2023-05-20T14:11:00;22.70;;;13.55;;
26953;SDS011;14508;50.924;11.600;2023-05-20T14:13:28;22.83;;;13.50;;
26953;SDS011;14508;50.924;11.600;2023-05-20T14:15:56;20.52;;;12.60;;
26953;SDS011;14508;50.924;11.600;2023-05-20T14:18:24;23.00;;;12.02;;
26953;SDS011;14508;50.924;11.600;2023-05-20T14:20:51;23.65;;;12.15;;
26953;SDS011;14508;50.924;11.600;2023-05-20T14:23:19;19.17;;;12.98;;